Time;durP1;ratioP1;P1;durP2;ratioP2;P2;SDS_P1;SDS_P2;PMS_P1;PMS_P2;Temp;Humidity;BMP_temperature;BMP_pressure;BME280_temperature;BME280_humidity;BME280_pressure;Samples;Min_cycle;Max_cycle;Signal;HPM_P1;HPM_P2
2023/06/10 00:02:05;;;;;;;;;;;;;;;20.63;53.35;97903.31;7387431;19;19923;-80
2023/06/10 00:04:32;;;;;;;;;;;;;;;20.65;52.57;97901.22;7388815;19;19935;-81
2023/06/10 00:06:59;;;;;;;;;;;;;;;20.66;52.39;97900.16;7383181;19;19923;-80
2023/06/10 00:09:26;;;;;;;;;;;;;;;20.62;54.14;97905.19;7380976;19;19915;-81
2023/06/10 00:11:59;;;;;;;;;;;;;;;20.53;52.46;97899.28;7383174;19;19931;-81
2023/06/10 00:14:26;;;;;;;;;;;;;;;20.51;54.70;97897.88;7384428;19;19915;-80
2023/06/10 00:16:53;;;;;;;;;;;;;;;20.48;55.37;97899.16;7377338;19;19927;-80
2023/06/10 00:19:25;;;;;;;;;;;;;;;20.43;54.69;97899.03;7381822;19;20016;-80
2023/06/10 00:21:52;;;;;;;;;;;;;;;20.41;54.91;97895.78;7382772;19;19923;-80
2023/06/10 00:24:19;;;;;;;;;;;;;;;20.34;55.38;97900.41;7382212;19;19982;-78
2023/06/10 00:26:46;;;;;;;;;;;;;;;20.30;55.75;97899.22;7376319;19;19922;-80
2023/06/10 00:29:14;;;;;;;;;;;;;;;20.26;56.46;97898.06;7384297;19;19933;-80
2023/06/10 00:31:40;;;;;;;;;;;;;;;20.23;56.30;97893.16;7380265;19;20771;-80
2023/06/10 00:34:07;;;;;;;;;;;;;;;20.19;56.24;97892.78;7385914;19;19923;-80
2023/06/10 00:36:35;;;;;;;;;;;;;;;20.14;57.75;97901.53;7377453;19;20289;-80
2023/06/10 00:39:03;;;;;;;;;;;;;;;20.09;56.84;97896.03;7388312;19;20340;-80
2023/06/10 00:41:34;;;;;;;;;;;;;;;20.04;57.14;97895.91;7387755;19;20746;-80
2023/06/10 00:44:01;;;;;;;;;;;;;;;19.93;55.46;97888.59;7386086;19;19918;-79
2023/06/10 00:46:28;;;;;;;;;;;;;;;19.95;57.97;97897.25;7389725;19;19919;-80
2023/06/10 00:48:55;;;;;;;;;;;;;;;19.95;58.13;97894.56;7387871;19;19943;-79
2023/06/10 00:51:25;;;;;;;;;;;;;;;19.81;55.63;97893.13;7389094;19;19919;-79
2023/06/10 00:53:51;;;;;;;;;;;;;;;19.79;56.57;97897.88;7389654;19;19933;-79
2023/06/10 00:56:22;;;;;;;;;;;;;;;19.80;56.02;97899.53;7383751;19;19954;-79
2023/06/10 00:58:49;;;;;;;;;;;;;;;19.80;56.86;97900.38;7382560;19;19918;-79
2023/06/10 01:01:15;;;;;;;;;;;;;;;19.71;55.31;97891.78;7388377;19;19930;-79
2023/06/10 01:03:42;;;;;;;;;;;;;;;19.74;57.19;97893.19;7388780;19;19922;-79
2023/06/10 01:06:17;;;;;;;;;;;;;;;19.74;58.20;97885.97;7387495;19;19923;-80
2023/06/10 01:08:46;;;;;;;;;;;;;;;19.77;56.54;97894.59;7387848;19;19926;-80
2023/06/10 01:11:16;;;;;;;;;;;;;;;19.74;56.88;97902.06;7389044;19;19923;-79
2023/06/10 01:13:42;;;;;;;;;;;;;;;19.73;56.59;97896.94;7382189;19;19923;-79
2023/06/10 01:16:09;;;;;;;;;;;;;;;19.67;57.08;97895.97;7382273;19;19919;-79
2023/06/10 01:18:38;;;;;;;;;;;;;;;19.66;56.79;97890.78;7386842;19;20486;-79
2023/06/10 01:21:07;;;;;;;;;;;;;;;19.66;57.00;97896.16;7390641;19;19925;-80
2023/06/10 01:23:34;;;;;;;;;;;;;;;19.62;57.53;97890.44;7389891;19;19919;-80
2023/06/10 01:26:02;;;;;;;;;;;;;;;19.59;57.43;97890.03;7385159;19;20503;-79
2023/06/10 01:28:49;;;;;;;;;;;;;;;19.58;58.36;97891.09;7390282;19;20567;-79
2023/06/10 01:31:33;;;;;;;;;;;;;;;19.51;58.87;97883.97;7385723;19;19921;-80
2023/06/10 01:34:02;;;;;;;;;;;;;;;19.42;56.25;97884.47;7382225;19;19922;-80
2023/06/10 01:36:29;;;;;;;;;;;;;;;19.45;57.77;97895.56;7387556;19;20634;-80
2023/06/10 01:38:56;;;;;;;;;;;;;;;19.48;57.61;97891.63;7391210;19;19974;-80
2023/06/10 01:41:22;;;;;;;;;;;;;;;19.43;57.37;97899.53;7390964;19;20609;-80
2023/06/10 01:43:49;;;;;;;;;;;;;;;19.43;58.60;97900.38;7389913;19;19922;-80
2023/06/10 01:46:19;;;;;;;;;;;;;;;19.39;58.77;97895.66;7386908;19;19919;-80
2023/06/10 01:48:46;;;;;;;;;;;;;;;19.36;58.47;97898.81;7384149;19;19911;-80
2023/06/10 01:51:15;;;;;;;;;;;;;;;19.34;57.12;97900.88;7389598;19;19918;-80
2023/06/10 01:53:41;;;;;;;;;;;;;;;19.30;58.09;97895.16;7384584;19;19918;-80
2023/06/10 01:56:08;;;;;;;;;;;;;;;19.25;58.18;97903.88;7386909;19;20538;-80
2023/06/10 01:58:35;;;;;;;;;;;;;;;19.23;58.61;97897.91;7392342;19;19957;-80
2023/06/10 02:01:01;;;;;;;;;;;;;;;19.19;59.86;97893.19;7387710;19;20014;-80
2023/06/10 02:03:28;;;;;;;;;;;;;;;19.12;57.77;97901.31;7392466;19;22576;-82
2023/06/10 02:05:56;;;;;;;;;;;;;;;19.17;58.39;97897.94;7382619;19;19931;-81
2023/06/10 02:08:22;;;;;;;;;;;;;;;19.12;59.00;97897.81;7392615;19;21368;-80
2023/06/10 02:10:49;;;;;;;;;;;;;;;19.07;57.65;97906.53;7389106;19;20281;-80
2023/06/10 02:13:16;;;;;;;;;;;;;;;19.04;57.15;97902.44;7392892;19;19919;-82
2023/06/10 02:15:43;;;;;;;;;;;;;;;19.02;57.18;97903.69;7389840;19;19918;-80
2023/06/10 02:18:11;;;;;;;;;;;;;;;19.03;58.10;97910.69;7398565;19;19946;-82
2023/06/10 02:20:38;;;;;;;;;;;;;;;19.03;56.85;97897.28;7393084;19;19918;-80
2023/06/10 02:23:05;;;;;;;;;;;;;;;19.02;55.94;97909.06;7388304;19;20393;-81
2023/06/10 02:25:31;;;;;;;;;;;;;;;19.04;57.65;97907.78;7389130;19;19943;-81
2023/06/10 02:27:58;;;;;;;;;;;;;;;19.07;57.73;97912.72;7387834;19;20297;-81
2023/06/10 02:30:25;;;;;;;;;;;;;;;19.07;59.17;97910.03;7388727;19;20336;-82
2023/06/10 02:32:52;;;;;;;;;;;;;;;19.02;56.88;97914.41;7382020;19;19986;-80
2023/06/10 02:35:19;;;;;;;;;;;;;;;19.05;57.56;97914.78;7386344;19;19915;-81
2023/06/10 02:37:46;;;;;;;;;;;;;;;19.06;58.59;97910.22;7382291;19;20265;-80
2023/06/10 02:40:13;;;;;;;;;;;;;;;18.98;58.26;97915.88;7380229;19;19957;-79
2023/06/10 02:42:40;;;;;;;;;;;;;;;18.84;58.54;97921.38;7380369;19;19943;-81
2023/06/10 02:45:07;;;;;;;;;;;;;;;18.82;58.94;97925.31;7383656;19;19931;-81
2023/06/10 02:47:41;;;;;;;;;;;;;;;18.66;58.21;97921.28;7388720;19;19919;-83
2023/06/10 02:50:10;;;;;;;;;;;;;;;18.62;59.09;97915.56;7385494;19;19919;-80
2023/06/10 02:53:00;;;;;;;;;;;;;;;18.55;59.49;97930.03;7378928;19;19926;-80
2023/06/10 02:55:30;;;;;;;;;;;;;;;18.48;59.36;97932.75;7380143;19;20311;-79
2023/06/10 02:58:00;;;;;;;;;;;;;;;18.43;59.53;97927.22;7381314;19;20006;-80
2023/06/10 03:00:31;;;;;;;;;;;;;;;18.33;59.78;97932.25;7383289;19;19915;-80
2023/06/10 03:03:00;;;;;;;;;;;;;;;18.34;61.21;97934.72;7381593;19;19929;-80
2023/06/10 03:05:31;;;;;;;;;;;;;;;18.22;60.35;97931.09;7384350;19;20276;-80
2023/06/10 03:08:00;;;;;;;;;;;;;;;18.17;61.02;97928.25;7381568;19;19918;-79
2023/06/10 03:10:28;;;;;;;;;;;;;;;18.09;61.39;97936.50;7383239;19;19923;-79
2023/06/10 03:12:55;;;;;;;;;;;;;;;18.07;61.83;97933.25;7373075;19;19919;-80
2023/06/10 03:15:24;;;;;;;;;;;;;;;18.07;61.54;97933.25;7381130;19;19947;-80
2023/06/10 03:17:51;;;;;;;;;;;;;;;18.10;61.86;97938.16;7383713;19;19914;-80
2023/06/10 03:20:18;;;;;;;;;;;;;;;18.10;61.44;97941.66;7385154;19;19931;-79
2023/06/10 03:22:45;;;;;;;;;;;;;;;18.05;62.03;97937.97;7382080;19;19940;-79
2023/06/10 03:25:13;;;;;;;;;;;;;;;17.97;61.79;97947.88;7385458;19;19910;-80
2023/06/10 03:27:43;;;;;;;;;;;;;;;17.89;62.79;97940.13;7379267;19;19942;-80
2023/06/10 03:30:12;;;;;;;;;;;;;;;17.97;61.63;97957.78;7379409;19;19919;-80
2023/06/10 03:32:40;;;;;;;;;;;;;;;18.00;62.64;97949.31;7382781;19;19926;-80
2023/06/10 03:35:09;;;;;;;;;;;;;;;18.03;63.27;97959.59;7376436;19;19926;-80
2023/06/10 03:37:36;;;;;;;;;;;;;;;18.06;62.78;97958.34;7383056;19;19921;-80
2023/06/10 03:40:04;;;;;;;;;;;;;;;18.09;63.27;97961.44;7380565;19;20246;-80
2023/06/10 03:42:32;;;;;;;;;;;;;;;18.10;62.89;97960.38;7381834;19;19915;-79
2023/06/10 03:44:59;;;;;;;;;;;;;;;18.13;62.81;97969.84;7378865;19;20370;-80
2023/06/10 03:47:33;;;;;;;;;;;;;;;18.03;61.42;97966.81;7381538;19;20388;-79
2023/06/10 03:50:04;;;;;;;;;;;;;;;18.04;62.99;97968.47;7380095;19;19914;-79
2023/06/10 03:52:31;;;;;;;;;;;;;;;18.07;62.76;97970.72;7382017;19;19919;-79
2023/06/10 03:54:58;;;;;;;;;;;;;;;18.11;62.66;97974.59;7378542;19;19926;-79
2023/06/10 03:57:25;;;;;;;;;;;;;;;18.12;62.74;97978.94;7383847;19;19927;-80
2023/06/10 03:59:52;;;;;;;;;;;;;;;18.16;63.03;97977.44;7381427;19;19939;-80
2023/06/10 04:02:19;;;;;;;;;;;;;;;18.21;63.40;97980.31;7379448;19;20369;-80
2023/06/10 04:04:45;;;;;;;;;;;;;;;18.20;62.69;97973.31;7380721;19;19914;-79
2023/06/10 04:07:13;;;;;;;;;;;;;;;18.20;62.80;97963.44;7383301;19;19926;-80
2023/06/10 04:09:40;;;;;;;;;;;;;;;18.15;62.11;97973.16;7381749;19;19943;-80
2023/06/10 04:12:10;;;;;;;;;;;;;;;18.13;63.72;97973.34;7375224;19;19922;-79
2023/06/10 04:14:37;;;;;;;;;;;;;;;18.19;64.00;97985.91;7378816;19;21085;-79
2023/06/10 04:17:08;;;;;;;;;;;;;;;18.23;62.97;97972.06;7380275;19;19930;-80
2023/06/10 04:19:37;;;;;;;;;;;;;;;18.17;63.49;97979.94;7376048;19;19922;-79
2023/06/10 04:22:05;;;;;;;;;;;;;;;18.28;63.99;97969.56;7378449;19;19978;-79
2023/06/10 04:24:32;;;;;;;;;;;;;;;18.33;63.64;97980.47;7383774;19;19985;-80
2023/06/10 04:27:00;;;;;;;;;;;;;;;18.37;63.63;97970.94;7379627;19;19922;-80
2023/06/10 04:29:27;;;;;;;;;;;;;;;18.42;63.38;97981.84;7380373;19;20368;-80
2023/06/10 04:32:01;;;;;;;;;;;;;;;18.46;63.68;97982.22;7376250;19;20029;-80
2023/06/10 04:34:30;;;;;;;;;;;;;;;18.52;63.86;97981.38;7380512;19;20317;-80
2023/06/10 04:36:57;;;;;;;;;;;;;;;18.57;65.06;97984.22;7374481;19;20291;-80
2023/06/10 04:39:24;;;;;;;;;;;;;;;18.58;64.45;97985.84;7381753;19;19915;-80
2023/06/10 04:41:50;;;;;;;;;;;;;;;18.61;65.11;97994.28;7379384;19;19918;-80
2023/06/10 04:44:18;;;;;;;;;;;;;;;18.58;63.18;97988.53;7383286;19;19922;-80
2023/06/10 04:46:45;;;;;;;;;;;;;;;18.65;64.59;97989.31;7382732;19;19914;-80
2023/06/10 04:49:14;;;;;;;;;;;;;;;18.68;64.26;97993.41;7379472;19;19950;-80
2023/06/10 04:51:41;;;;;;;;;;;;;;;18.65;62.34;97983.97;7376011;19;19918;-80
2023/06/10 04:54:07;;;;;;;;;;;;;;;18.62;62.51;97987.88;7375931;19;19986;-80
2023/06/10 04:56:34;;;;;;;;;;;;;;;18.60;62.41;97992.63;7381757;19;19914;-80
2023/06/10 04:59:01;;;;;;;;;;;;;;;18.56;63.97;97988.75;7382683;19;20387;-80
2023/06/10 05:01:27;;;;;;;;;;;;;;;18.49;63.97;97992.53;7383452;19;19932;-80
2023/06/10 05:03:54;;;;;;;;;;;;;;;18.53;63.88;97991.03;7379864;19;19918;-80
2023/06/10 05:06:21;;;;;;;;;;;;;;;18.57;63.31;97997.63;7382606;19;19923;-79
2023/06/10 05:08:47;;;;;;;;;;;;;;;18.54;63.60;97995.38;7378258;19;19910;-80
2023/06/10 05:11:14;;;;;;;;;;;;;;;18.63;64.48;97992.19;7380437;19;19975;-80
2023/06/10 05:13:43;;;;;;;;;;;;;;;18.68;63.74;98004.97;7385683;19;19986;-79
2023/06/10 05:16:10;;;;;;;;;;;;;;;18.79;63.69;98001.59;7383951;19;19924;-79
2023/06/10 05:18:37;;;;;;;;;;;;;;;18.89;63.09;98001.13;7384987;19;19915;-80
2023/06/10 05:21:04;;;;;;;;;;;;;;;19.02;63.27;98005.56;7379678;19;19922;-80
2023/06/10 05:23:30;;;;;;;;;;;;;;;19.11;63.47;98004.22;7384789;19;19922;-79
2023/06/10 05:25:58;;;;;;;;;;;;;;;19.13;62.57;98002.16;7382452;19;19919;-80
2023/06/10 05:28:25;;;;;;;;;;;;;;;19.18;62.55;98002.31;7387492;19;19922;-80
2023/06/10 05:30:52;;;;;;;;;;;;;;;19.13;62.67;97999.47;7388120;19;19918;-80
2023/06/10 05:33:19;;;;;;;;;;;;;;;19.07;62.65;98016.44;7386037;19;19943;-80
2023/06/10 05:35:45;;;;;;;;;;;;;;;19.11;62.91;98017.63;7384776;19;20339;-79
2023/06/10 05:38:12;;;;;;;;;;;;;;;19.18;62.66;98009.56;7385904;19;19927;-79
2023/06/10 05:40:39;;;;;;;;;;;;;;;19.16;62.72;98014.31;7388747;19;19918;-79
2023/06/10 05:43:06;;;;;;;;;;;;;;;19.14;62.20;98009.19;7379832;19;19919;-80
2023/06/10 05:45:36;;;;;;;;;;;;;;;19.15;62.28;98015.34;7389776;19;19931;-79
2023/06/10 05:48:03;;;;;;;;;;;;;;;19.20;62.92;98010.97;7387141;19;19919;-79
2023/06/10 05:50:30;;;;;;;;;;;;;;;19.22;62.42;98010.75;7387687;19;20580;-80
2023/06/10 05:52:57;;;;;;;;;;;;;;;19.22;62.24;98010.75;7383219;19;19918;-79
2023/06/10 05:55:24;;;;;;;;;;;;;;;19.34;62.46;98014.34;7387145;19;19917;-79
2023/06/10 05:57:59;;;;;;;;;;;;;;;19.32;61.95;98016.41;7388354;19;19925;-81
2023/06/10 06:00:26;;;;;;;;;;;;;;;19.33;61.66;98019.94;7389166;19;19918;-79
2023/06/10 06:02:54;;;;;;;;;;;;;;;19.36;61.82;98028.38;7396131;19;19925;-80
2023/06/10 06:05:21;;;;;;;;;;;;;;;19.39;62.23;98027.09;7407250;19;19933;-78
2023/06/10 06:07:47;;;;;;;;;;;;;;;19.39;62.67;98030.59;7407653;19;19978;-80
2023/06/10 06:10:14;;;;;;;;;;;;;;;19.43;62.41;98028.28;7399822;19;19939;-80
2023/06/10 06:12:41;;;;;;;;;;;;;;;19.51;62.08;98017.31;7402108;19;19922;-78
2023/06/10 06:15:10;;;;;;;;;;;;;;;19.56;62.19;98021.97;7397777;19;19963;-79
2023/06/10 06:17:38;;;;;;;;;;;;;;;19.60;62.02;98018.63;7398548;19;19919;-80
2023/06/10 06:20:05;;;;;;;;;;;;;;;19.71;61.35;98031.34;7392436;19;19928;-79
2023/06/10 06:22:31;;;;;;;;;;;;;;;19.79;61.33;98026.72;7385839;19;19974;-80
2023/06/10 06:24:58;;;;;;;;;;;;;;;19.91;60.47;98019.59;7387453;19;19914;-80
2023/06/10 06:27:25;;;;;;;;;;;;;;;19.98;60.64;98024.84;7387426;19;19919;-80
2023/06/10 06:29:52;;;;;;;;;;;;;;;19.90;60.60;98018.72;7386533;19;19935;-81
2023/06/10 06:32:19;;;;;;;;;;;;;;;20.04;60.69;98022.09;7381606;19;19939;-80
2023/06/10 06:34:46;;;;;;;;;;;;;;;20.12;60.16;98018.28;7380829;19;19922;-79
2023/06/10 06:37:12;;;;;;;;;;;;;;;20.06;59.69;98028.03;7382927;19;19934;-79
2023/06/10 06:39:41;;;;;;;;;;;;;;;20.19;59.86;98027.06;7387191;19;20341;-79
2023/06/10 06:42:08;;;;;;;;;;;;;;;20.32;59.35;98026.09;7382668;19;19987;-80
2023/06/10 06:44:53;;;;;;;;;;;;;;;20.40;59.70;98023.06;7387159;19;19941;-79
2023/06/10 06:47:20;;;;;;;;;;;;;;;20.32;59.16;98024.22;7385211;19;19982;-78
2023/06/10 06:49:47;;;;;;;;;;;;;;;20.43;59.26;98021.81;7382961;19;20615;-80
2023/06/10 06:52:17;;;;;;;;;;;;;;;20.52;59.41;98031.19;7380521;19;19926;-80
2023/06/10 06:54:44;;;;;;;;;;;;;;;20.58;60.23;98027.63;7385874;19;19946;-79
2023/06/10 06:57:10;;;;;;;;;;;;;;;20.69;60.93;98031.41;7380267;19;20663;-80
2023/06/10 06:59:37;;;;;;;;;;;;;;;20.72;59.88;98026.41;7383107;19;19919;-81
2023/06/10 07:02:05;;;;;;;;;;;;;;;20.83;60.07;98020.22;7383660;19;19943;-77
2023/06/10 07:04:32;;;;;;;;;;;;;;;20.85;60.14;98025.34;7380820;19;19919;-79
2023/06/10 07:07:00;;;;;;;;;;;;;;;20.93;59.95;98022.34;7381574;19;19915;-77
2023/06/10 07:09:30;;;;;;;;;;;;;;;21.08;58.75;98029.16;7385587;19;19926;-80
2023/06/10 07:11:56;;;;;;;;;;;;;;;21.15;59.06;98035.25;7382631;19;19922;-79
2023/06/10 07:14:23;;;;;;;;;;;;;;;21.17;58.82;98033.13;7386840;19;19919;-81
2023/06/10 07:16:50;;;;;;;;;;;;;;;21.26;58.63;98027.19;7385340;19;19923;-81
2023/06/10 07:19:17;;;;;;;;;;;;;;;21.33;59.27;98032.47;7387292;19;19943;-78
2023/06/10 07:21:43;;;;;;;;;;;;;;;21.38;58.13;98040.69;7388765;19;19978;-80
2023/06/10 07:24:10;;;;;;;;;;;;;;;21.35;56.78;98038.41;7380247;19;19925;-81
2023/06/10 07:26:37;;;;;;;;;;;;;;;21.40;56.71;98030.47;7388735;19;19919;-79
2023/06/10 07:29:04;;;;;;;;;;;;;;;21.46;57.91;98031.44;7386242;19;20260;-78
2023/06/10 07:31:30;;;;;;;;;;;;;;;21.45;56.40;98025.22;7391574;19;19925;-82
2023/06/10 07:33:57;;;;;;;;;;;;;;;21.41;57.82;98018.69;7385660;19;20424;-79
2023/06/10 07:36:27;;;;;;;;;;;;;;;21.35;58.30;98032.22;7382289;19;19970;-80
2023/06/10 07:38:54;;;;;;;;;;;;;;;21.50;57.44;98023.72;7385367;19;20008;-78
2023/06/10 07:41:22;;;;;;;;;;;;;;;21.52;56.64;98022.41;7386514;19;19917;-81
2023/06/10 07:43:54;;;;;;;;;;;;;;;21.73;56.64;98021.00;7390650;19;19974;-79
2023/06/10 07:46:21;;;;;;;;;;;;;;;21.64;56.92;98022.41;7389278;19;19922;-80
2023/06/10 07:48:48;;;;;;;;;;;;;;;21.83;56.96;98028.50;7389657;19;19915;-80
2023/06/10 07:51:16;;;;;;;;;;;;;;;21.92;55.65;98025.16;7389442;19;19933;-82
2023/06/10 07:53:42;;;;;;;;;;;;;;;22.02;55.29;98015.69;7384215;19;19915;-80
2023/06/10 07:56:09;;;;;;;;;;;;;;;22.07;54.58;98021.16;7383682;19;19919;-80
2023/06/10 07:58:36;;;;;;;;;;;;;;;22.14;54.37;98024.53;7386565;19;19927;-79
2023/06/10 08:01:02;;;;;;;;;;;;;;;22.17;55.36;98026.78;7386143;19;19922;-77
2023/06/10 08:03:29;;;;;;;;;;;;;;;22.10;55.60;98020.69;7387541;19;19918;-80
2023/06/10 08:05:58;;;;;;;;;;;;;;;22.06;56.97;98012.25;7384553;19;19922;-78
2023/06/10 08:08:25;;;;;;;;;;;;;;;22.11;58.23;98011.53;7384325;19;19926;-79
2023/06/10 08:10:52;;;;;;;;;;;;;;;22.32;56.61;98012.78;7383256;19;20615;-81
2023/06/10 08:13:18;;;;;;;;;;;;;;;22.38;56.90;98013.69;7381980;19;19990;-80
2023/06/10 08:15:47;;;;;;;;;;;;;;;22.41;53.85;98003.28;7387912;19;19932;-80
2023/06/10 08:18:14;;;;;;;;;;;;;;;22.63;55.46;98013.38;7388905;19;19934;-83
2023/06/10 08:20:41;;;;;;;;;;;;;;;22.73;55.05;98011.66;7384582;19;20327;-79
2023/06/10 08:23:08;;;;;;;;;;;;;;;22.81;53.56;98001.56;7383899;19;19997;-82
2023/06/10 08:25:34;;;;;;;;;;;;;;;22.91;52.02;97999.84;7385493;19;19922;-82
2023/06/10 08:28:01;;;;;;;;;;;;;;;23.05;53.32;98000.34;7385513;19;19919;-81
2023/06/10 08:30:31;;;;;;;;;;;;;;;23.10;51.91;98000.44;7384685;19;19935;-84
2023/06/10 08:32:58;;;;;;;;;;;;;;;23.10;53.00;98010.41;7380793;19;19922;-84
2023/06/10 08:35:25;;;;;;;;;;;;;;;23.24;51.30;98003.63;7384183;19;19915;-80
2023/06/10 08:37:51;;;;;;;;;;;;;;;23.33;51.90;98002.16;7389812;19;20704;-81
2023/06/10 08:40:18;;;;;;;;;;;;;;;23.42;51.30;97994.44;7385034;19;19926;-83
2023/06/10 08:42:51;;;;;;;;;;;;;;;23.52;51.26;98008.09;7386489;19;19915;-81
2023/06/10 08:45:18;;;;;;;;;;;;;;;23.56;50.28;98001.09;7388112;19;20396;-78
2023/06/10 08:47:46;;;;;;;;;;;;;;;23.67;50.12;98000.19;7386986;19;19918;-82
2023/06/10 08:50:12;;;;;;;;;;;;;;;23.73;50.16;98000.31;7378907;19;19914;-81
2023/06/10 08:52:41;;;;;;;;;;;;;;;23.83;50.67;98005.84;7385059;19;19918;-84
2023/06/10 08:55:12;;;;;;;;;;;;;;;23.85;49.38;97999.09;7385451;19;19929;-80
2023/06/10 08:57:39;;;;;;;;;;;;;;;24.05;49.19;98001.25;7388338;19;19938;-85
2023/06/10 09:00:06;;;;;;;;;;;;;;;24.06;48.02;97999.34;7394656;19;20699;-83
2023/06/10 09:02:37;;;;;;;;;;;;;;;24.05;48.93;97998.53;7388837;19;19947;-82
2023/06/10 09:05:04;;;;;;;;;;;;;;;24.16;48.58;97994.06;7388565;19;19915;-85
2023/06/10 09:07:31;;;;;;;;;;;;;;;24.29;49.34;97998.28;7392740;19;19938;-82
2023/06/10 09:09:58;;;;;;;;;;;;;;;24.38;48.89;97995.94;7393910;19;19923;-80
2023/06/10 09:12:24;;;;;;;;;;;;;;;24.40;47.26;97993.78;7390326;19;19923;-81
2023/06/10 09:14:51;;;;;;;;;;;;;;;24.42;47.75;97997.88;7395520;19;19934;-82
2023/06/10 09:17:18;;;;;;;;;;;;;;;24.53;46.87;97990.72;7395079;19;19919;-82
2023/06/10 09:19:45;;;;;;;;;;;;;;;24.68;48.25;97985.44;7390183;19;19914;-80
2023/06/10 09:22:12;;;;;;;;;;;;;;;24.79;47.53;97990.97;7389555;19;20886;-78
2023/06/10 09:24:39;;;;;;;;;;;;;;;24.80;46.02;97984.47;7393868;19;20834;-82
2023/06/10 09:27:07;;;;;;;;;;;;;;;24.81;46.44;97983.41;7383932;19;19929;-81
2023/06/10 09:29:47;;;;;;;;;;;;;;;24.77;45.96;97983.09;7387440;19;19926;-79
2023/06/10 09:32:14;;;;;;;;;;;;;;;24.82;46.74;97988.53;7389844;19;19929;-80
2023/06/10 09:34:41;;;;;;;;;;;;;;;24.98;47.07;97989.50;7389264;19;19946;-79
2023/06/10 09:37:11;;;;;;;;;;;;;;;25.09;45.50;97979.56;7388880;19;19918;-80
2023/06/10 09:39:38;;;;;;;;;;;;;;;25.40;45.06;97981.44;7389609;19;19943;-81
2023/06/10 09:42:18;;;;;;;;;;;;;;;25.33;43.73;97972.75;7388775;19;19923;-82
2023/06/10 09:44:51;;;;;;;;;;;;;;;25.35;43.91;97972.47;7391379;19;20691;-81
2023/06/10 09:47:22;;;;;;;;;;;;;;;25.53;44.04;97974.72;7388906;19;20292;-81
2023/06/10 09:49:50;;;;;;;;;;;;;;;25.71;43.65;97976.19;7391065;19;19946;-81
2023/06/10 09:52:26;;;;;;;;;;;;;;;26.05;43.65;97975.81;7390393;19;19937;-80
2023/06/10 09:54:54;;;;;;;;;;;;;;;26.33;42.20;97974.56;7393114;19;19918;-81
2023/06/10 09:57:21;;;;;;;;;;;;;;;26.41;41.81;97967.75;7395012;19;19974;-81
2023/06/10 09:59:48;;;;;;;;;;;;;;;26.44;41.58;97973.50;7394030;19;19980;-83
2023/06/10 10:02:25;;;;;;;;;;;;;;;26.36;44.17;97981.34;7390255;19;19923;-81
2023/06/10 10:04:52;;;;;;;;;;;;;;;26.42;42.53;97972.13;7393272;19;19951;-80
2023/06/10 10:07:20;;;;;;;;;;;;;;;26.15;41.13;97975.06;7393342;19;20003;-83
2023/06/10 10:09:47;;;;;;;;;;;;;;;26.39;41.94;97969.97;7387905;19;19920;-80
2023/06/10 10:12:15;;;;;;;;;;;;;;;26.91;41.58;97967.06;7382255;19;20336;-78
2023/06/10 10:14:47;;;;;;;;;;;;;;;27.49;40.73;97961.31;7388162;19;19922;-81
2023/06/10 10:17:17;;;;;;;;;;;;;;;28.10;39.54;97954.84;7386380;19;19911;-80
2023/06/10 10:19:48;;;;;;;;;;;;;;;28.37;39.01;97959.03;7389519;19;19918;-82
2023/06/10 10:22:15;;;;;;;;;;;;;;;28.64;37.55;97955.88;7389740;19;20349;-83
2023/06/10 10:24:44;;;;;;;;;;;;;;;29.15;37.50;97951.94;7386405;19;19947;-82
2023/06/10 10:27:12;;;;;;;;;;;;;;;29.14;36.51;97945.69;7381859;19;20202;-80
2023/06/10 10:29:39;;;;;;;;;;;;;;;29.08;36.04;97946.84;7386696;19;19911;-81
2023/06/10 10:32:06;;;;;;;;;;;;;;;29.00;36.37;97939.25;7387431;19;19947;-80
2023/06/10 10:34:36;;;;;;;;;;;;;;;28.77;35.74;97946.25;7390169;19;19929;-79
2023/06/10 10:37:03;;;;;;;;;;;;;;;28.18;38.18;97951.53;7386768;19;19915;-81
2023/06/10 10:39:30;;;;;;;;;;;;;;;27.75;38.39;97940.28;7388694;19;19922;-81
2023/06/10 10:41:57;;;;;;;;;;;;;;;27.55;40.06;97948.50;7385557;19;19915;-79
2023/06/10 10:44:24;;;;;;;;;;;;;;;27.34;40.16;97940.41;7387318;19;20383;-79
2023/06/10 10:46:51;;;;;;;;;;;;;;;27.32;40.48;97945.28;7389000;19;19919;-79
2023/06/10 10:49:18;;;;;;;;;;;;;;;27.43;39.81;97945.28;7385231;19;19962;-78
2023/06/10 10:51:54;;;;;;;;;;;;;;;27.29;40.06;97945.03;7385229;19;20273;-82
2023/06/10 10:54:23;;;;;;;;;;;;;;;27.04;41.00;97948.56;7391022;19;19919;-81
2023/06/10 10:57:08;;;;;;;;;;;;;;;26.89;40.75;97946.69;7388815;19;19929;-83
2023/06/10 10:59:55;;;;;;;;;;;;;;;26.93;38.88;97931.47;7385179;19;20036;-81
2023/06/10 11:02:32;;;;;;;;;;;;;;;27.08;39.93;97936.09;7384854;19;20313;-85
2023/06/10 11:05:00;;;;;;;;;;;;;;;27.02;42.58;97927.13;7388334;19;19915;-81
2023/06/10 11:07:31;;;;;;;;;;;;;;;27.26;39.42;97932.03;7385919;19;19925;-80
2023/06/10 11:09:59;;;;;;;;;;;;;;;27.20;38.73;97927.66;7386622;19;20606;-79
2023/06/10 11:12:28;;;;;;;;;;;;;;;26.91;39.98;97933.66;7384818;19;19915;-81
2023/06/10 11:14:58;;;;;;;;;;;;;;;26.82;38.60;97919.81;7385775;19;19915;-81
2023/06/10 11:17:27;;;;;;;;;;;;;;;26.78;38.31;97924.19;7386032;19;19937;-83
2023/06/10 11:19:54;;;;;;;;;;;;;;;26.83;38.68;97921.47;7390180;19;19922;-79
2023/06/10 11:22:23;;;;;;;;;;;;;;;26.96;39.73;97930.13;7382906;19;19982;-84
2023/06/10 11:24:50;;;;;;;;;;;;;;;26.91;38.93;97928.25;7386746;19;19924;-82
2023/06/10 11:27:24;;;;;;;;;;;;;;;26.92;37.46;97919.00;7383727;19;20514;-88
2023/06/10 11:30:00;;;;;;;;;;;;;;;26.91;38.87;97920.09;7387457;19;19907;-81
2023/06/10 11:32:31;;;;;;;;;;;;;;;26.77;39.88;97917.09;7382946;19;19915;-81
2023/06/10 11:34:58;;;;;;;;;;;;;;;26.64;37.81;97918.44;7386773;19;19946;-85
2023/06/10 11:37:25;;;;;;;;;;;;;;;26.78;37.76;97916.03;7387041;19;20015;-79
2023/06/10 11:39:55;;;;;;;;;;;;;;;26.99;37.92;97924.13;7391318;19;19923;-79
2023/06/10 11:42:25;;;;;;;;;;;;;;;27.11;38.98;97924.66;7384561;19;19921;-82
2023/06/10 11:44:52;;;;;;;;;;;;;;;27.08;39.16;97908.94;7386454;19;19922;-79
2023/06/10 11:47:18;;;;;;;;;;;;;;;27.11;38.30;97911.91;7388191;19;19921;-80
2023/06/10 11:49:46;;;;;;;;;;;;;;;26.96;38.44;97906.50;7383913;19;19929;-82
2023/06/10 11:52:17;;;;;;;;;;;;;;;27.02;39.17;97900.00;7388173;19;19921;-83
2023/06/10 11:54:46;;;;;;;;;;;;;;;27.12;38.99;97905.41;7391169;19;19922;-82
2023/06/10 11:57:13;;;;;;;;;;;;;;;27.10;38.22;97914.91;7383739;19;19925;-83
2023/06/10 11:59:40;;;;;;;;;;;;;;;27.13;37.72;97909.72;7387530;19;20327;-81
2023/06/10 12:02:07;;;;;;;;;;;;;;;27.18;37.29;97908.13;7384792;19;19923;-80
2023/06/10 12:04:33;;;;;;;;;;;;;;;27.23;37.15;97903.50;7379834;19;19919;-80
2023/06/10 12:07:00;;;;;;;;;;;;;;;27.23;37.70;97898.06;7384211;19;19915;-83
2023/06/10 12:09:27;;;;;;;;;;;;;;;27.31;38.25;97899.41;7385667;19;20324;-84
2023/06/10 12:11:59;;;;;;;;;;;;;;;27.43;36.63;97897.19;7389757;19;19939;-79
2023/06/10 12:14:47;;;;;;;;;;;;;;;27.63;38.46;97906.38;7389755;19;20606;-79
2023/06/10 12:17:14;;;;;;;;;;;;;;;27.94;37.31;97901.63;7387339;19;19962;-82
2023/06/10 12:19:41;;;;;;;;;;;;;;;27.95;36.72;97897.81;7389339;19;19929;-82
2023/06/10 12:22:09;;;;;;;;;;;;;;;27.93;36.68;97900.00;7388063;19;19914;-83
2023/06/10 12:24:44;;;;;;;;;;;;;;;28.00;36.31;97889.63;7388096;19;19923;-88
2023/06/10 12:27:14;;;;;;;;;;;;;;;27.99;36.23;97886.09;7387644;19;19971;-84
2023/06/10 12:29:51;;;;;;;;;;;;;;;28.05;35.30;97894.25;7388653;19;19946;-84
2023/06/10 12:32:19;;;;;;;;;;;;;;;27.81;36.38;97886.75;7392554;19;19926;-86
2023/06/10 12:34:47;;;;;;;;;;;;;;;27.71;36.29;97889.47;7397140;19;19922;-84
2023/06/10 12:37:13;;;;;;;;;;;;;;;27.68;35.73;97890.84;7398284;19;19922;-85
2023/06/10 12:39:40;;;;;;;;;;;;;;;27.49;37.32;97884.38;7393077;19;20890;-82
2023/06/10 12:42:09;;;;;;;;;;;;;;;27.25;37.72;97889.63;7392495;19;19923;-82
2023/06/10 12:44:39;;;;;;;;;;;;;;;27.22;37.95;97898.34;7392770;19;20496;-83
2023/06/10 12:47:09;;;;;;;;;;;;;;;27.29;38.31;97890.72;7399376;19;19919;-82
2023/06/10 12:49:36;;;;;;;;;;;;;;;27.13;38.29;97885.28;7397647;19;19998;-83
2023/06/10 12:52:03;;;;;;;;;;;;;;;27.05;36.92;97893.19;7398192;19;19915;-84
2023/06/10 12:54:30;;;;;;;;;;;;;;;27.06;38.78;97892.09;7396909;19;19919;-83